Pagrindinis puslapis
METAR-TAF:

METAR-TAF

Oro uostai :

Olsztyn-Mazury

Olštynas, Lenkija

platuma: 53-28-55N, ilguma: 20-56-16E, Aukštis: 141 m

Dabartinis oras

Ataskaita buvo paskelbta 15 minutes, ne 18:30 UTC
Vėjas 5 kt iš Rytų/Pietryčių, svyruoja nuo Rytų/Šiaurės Rytų ir Pietų/Pietryčių
Temperatūra 6°C
Drėgmė 87%
Slėgis 1020 hPa
Matomumas 10 km arba daugiau
Su prošvaistėmis ne aukštis 2100 ft

METAR: EPSY 291830Z 12005KT 070V160 9999 BKN021 06/04 Q1020

Laikas: 19:45 (18:45 UTC)

Prognozė

Ataskaita buvo paskelbta 1 valandą ir 15 minutes, ne 17:30 UTC
Prognozė galioja nuo 29 metu 18 UTC su 01 metu 03 UTC
Vėjas 7 kt iš Rytų/Pietryčių
Matomumas: 8000 m
Išsisklaidę debesys ne aukštis 2700 ft
Tikimybė 40%
nuo 29 metu 18 UTC su 01 metu 03 UTC
Matomumas: 4000 m
Su prošvaistėmis ne aukštis 1400 ft
rūkana,

TAF: EPSY 291730Z 2918/0103 12007KT 8000 SCT027 PROB40 2918/0103 4000 BR BKN014

Orai ataskaitas ir orų prognozės (METAR, TAF).

turimą stotys yra geltonos ir raudonos taškus žemėlapyje.

Perkelti pele per norėdami pamatyti stoties vardą.

Tada spustelėkite, norėdami matyti oro stebėjimo ir prognozės.

Norėdami pakeisti žemėlapį: spustelėkite ant žalios mygtukų su juodo kryžiaus žemyn,; žalią mygtuką su brūkšneliu, jei norite nutolinti; arba žalių rodyklių gretimoms žemėlapius.


METAR-TAF: